INFORMACIÓN METAR y TAF
METAR FOR EFJY
ADDS - METARS form results

(0859 UTC 15 April 2021)
Data provider http://aviationweather.gov/metar/data/
 
METAR text: EFJY 150850Z 30007KT 260V350 CAVOK 07/M05 Q1031
Conditions at: EFJY (JYVASKYLA (MIL/C, FI) observed 0850 UTC 15 April 2021
Temperature: 7.0°C (45°F)
Dewpoint: -5.0°C (23°F) [RH = 42%]
Pressure (altimeter): 30.44 inches Hg (1031.0 mb)
Winds: from the WNW (300 degrees) at 8 MPH (7 knots; 3.6 m/s)
Visibility: 6 or more miles (10+ km)
Ceiling: ceiling and visibility are OK
Clouds: unknown
Weather: no significant weather observed at this time

METAR text: EFJY 150820Z 32005KT 260V350 CAVOK 07/M04 Q1031
Conditions at: EFJY (JYVASKYLA (MIL/C, FI) observed 0820 UTC 15 April 2021
Temperature: 7.0°C (45°F)
Dewpoint: -4.0°C (25°F) [RH = 45%]
Pressure (altimeter): 30.44 inches Hg (1031.0 mb)
Winds: from the NW (320 degrees) at 6 MPH (5 knots; 2.6 m/s)
Visibility: 6 or more miles (10+ km)
Ceiling: ceiling and visibility are OK
Clouds: unknown
Weather: no significant weather observed at this time

Forecast for: EFJY (JYVASKYLA (MIL/C, FI)
Text: TAF EFJY 150824Z 1509/1609 32005KT CAVOK
Forecast period: 0900 UTC 15 April 2021 to 0900 UTC 16 April 2021
Forecast type: FROM: standard forecast or significant change
Winds: from the NW (320 degrees) at 6 MPH (5 knots; 2.6 m/s)
Visibility: 6 or more miles (10+ km)
Ceiling: unknown
Clouds: missing
Weather: NSW  (no significant weather)

 MAPA DE AEROPUERTO

 INFORMACIÓN DE PISTA
Pista 12 Longitud 8533 ft Ancho 197 ft
Elevación 452 ft Umbral desplazado 0 ft Rumbo de pista 134
Pista 30 Longitud 8533 ft Ancho 197 ft
Elevación 407 ft Umbral desplazado 0 ft Rumbo de pista 314

 FRECUANCIAS DEL AEROPUERTO
Tipo APP Nombre APP Frecuencia 119.7 MHZ
Tipo ATIS Nombre ATIS Frecuencia 134.15 MHZ
Tipo TWR Nombre TWR Frecuencia 118 MHZ

 RADIO AYUDAS DEL AEROPUERTO
Tipo VOR-DME Nombre Luonet Frecuencia 112300 KHZ



Powered by Virtual Airlines Manager [v2.6.2]